Poplar Arrow — C6TQ3 — position and weather

sailwx.info

Track history (hours):
 
Tides and Currents Weather Stations Pressure Air Temp Water Temp Dewpoint Dewpoint Depression Visibility Wind Speed Wind Dir Waves Ship Positions

Poplar Arrow

Last reported at 2015-Jul-30 21:00 UTC. Time now 2015-Jul-31 07:21 UTC.
Position S 33°06' E 027°54'.

Length 190 m; draft 12.8 m.

Type: Cargo ship. MMSI: 311744000.

Wind from 260 at 39 knots

Waves 5.0 meters (16 feet), 6 second period

Barometer 1020.9 mb
Air temperature 18.3 ° C
Visibility: greater than 5.4 NM
Dewpoint 12.4 ° C
Water temperature 19.0 ° C

Date/timePositionNaut miles runAvg speedWind from/ knotsBaromVisibWave heightAir tempDewpointWater temp
2015-Jul-30 21:00S 33°06' E 027°54'16711.1 260 / 391020.9 5.4 5.018.312.419.0
2015-Jul-30 06:00S 31°12' E 030°18'59 9.9 240 / 131013.8 5.4 1.519.515.618.4
2015-Jul-30 00:04S 30°24' E 030°56'510.4
2015-Jul-29 23:33S 30°19' E 030°60'1010.2
2015-Jul-29 22:33S 30°10' E 031°06'1010.4
2015-Jul-29 21:33S 30°01' E 031°10'1010.3
2015-Jul-29 20:33S 29°50' E 031°11'3 3.4
2015-Jul-29 19:33S 29°47' E 031°11'0 0.1
2015-Jul-29 18:33S 29°47' E 031°11'0 0.1
2015-Jul-29 17:32S 29°47' E 031°11'0 0.0
2015-Jul-29 16:32S 29°47' E 031°11'0 0.0
2015-Jul-29 15:31S 29°47' E 031°11'2 1.9
2015-Jul-29 14:33S 29°49' E 031°10'2 2.5
2015-Jul-29 13:33S 29°50' E 031°08'9 9.0
2015-Jul-29 12:33S 29°44' E 031°15'5 4.5
2015-Jul-29 11:29S 29°47' E 031°11'0 0.0
2015-Jul-29 10:32S 29°47' E 031°11'712.2
2015-Jul-29 10:00S 29°42' E 031°06'713.9 040 / 121011.1 5.4 1.023.514.222.0
2015-Jul-29 09:31S 29°47' E 031°11'0 0.0
2015-Jul-29 08:31S 29°47' E 031°11'0 0.0
2015-Jul-29 07:34S 29°47' E 031°11'0 0.0
2015-Jul-29 06:33S 29°47' E 031°11'0 0.0
2015-Jul-29 05:33S 29°47' E 031°11'0 0.0
2015-Jul-29 04:32S 29°47' E 031°11'0 0.0
2015-Jul-29 03:32S 29°47' E 031°11'0 0.0
2015-Jul-29 02:31S 29°47' E 031°11'0 0.0
2015-Jul-29 01:31S 29°47' E 031°11'0 0.0
2015-Jul-29 00:33S 29°47' E 031°11'0 0.0
2015-Jul-28 23:33S 29°47' E 031°11'0 0.0
2015-Jul-28 22:33S 29°47' E 031°11'711.9
2015-Jul-28 22:00S 29°42' E 031°06'714.4 030 / 121015.0 5.4 1.020.015.819.0
2015-Jul-28 21:32S 29°47' E 031°11'0 0.0
2015-Jul-28 20:32S 29°47' E 031°11'0 0.0
2015-Jul-28 19:31S 29°47' E 031°11'0 0.0
2015-Jul-28 18:31S 29°47' E 031°11'712.6
2015-Jul-28 18:00S 29°42' E 031°06'715.1 030 / 191017.5 5.4 2.020.014.919.0
2015-Jul-28 17:33S 29°47' E 031°11'0 0.0
2015-Jul-28 16:33S 29°47' E 031°11'0 0.0
2015-Jul-28 15:33S 29°47' E 031°11'0 0.0
2015-Jul-28 14:32S 29°47' E 031°11'0 0.0
2015-Jul-28 13:32S 29°47' E 031°11'0 0.0
2015-Jul-28 12:31S 29°47' E 031°11'0 0.0
2015-Jul-28 11:31S 29°47' E 031°11'0 0.0
2015-Jul-28 10:33S 29°47' E 031°11'0 0.0
2015-Jul-28 09:33S 29°47' E 031°11'0 0.0
2015-Jul-28 08:33S 29°47' E 031°11'0 0.0
2015-Jul-28 07:23S 29°47' E 031°11'0 0.0
2015-Jul-28 06:32S 29°47' E 031°11'0 0.0
2015-Jul-28 05:31S 29°47' E 031°11'0 0.0
2015-Jul-28 04:31S 29°47' E 031°11'0 0.0
2015-Jul-28 03:33S 29°47' E 031°11'0 0.0
2015-Jul-28 02:33S 29°47' E 031°11'0 0.2
2015-Jul-28 01:34S 29°47' E 031°11'5 5.1
2015-Jul-28 00:33S 29°45' E 031°16'6 5.7
2015-Jul-27 23:33S 29°41' E 031°21'6 6.2
2015-Jul-27 22:33S 29°38' E 031°27'6 6.2
2015-Jul-27 21:33S 29°35' E 031°33'6 6.0
2015-Jul-27 20:33S 29°32' E 031°39'5 1.8
2015-Jul-27 17:33S 29°29' E 031°44'1 0.9
2015-Jul-27 16:27S 29°29' E 031°46'3 3.5
2015-Jul-27 15:33S 29°27' E 031°48'  
2015-Jul-23 15:26S 28°47' E 032°03'6 0.6
2015-Jul-23 05:17S 28°52' E 032°08'2 1.8
2015-Jul-23 04:25S 28°53' E 032°10'  
Track history (hours):
 
Tides and Currents Weather Stations Pressure Air Temp Water Temp Dewpoint Dewpoint Depression Visibility Wind Speed Wind Dir Waves Ship Positions

Poplar Arrow

Last reported at 2015-Jul-30 21:00 UTC. Time now 2015-Jul-31 07:21 UTC.
Position S 33°06' E 027°54'.

Length 190 m; draft 12.8 m.

Type: Cargo ship. MMSI: 311744000.

Wind from 260 at 39 knots

Waves 5.0 meters (16 feet), 6 second period

Barometer 1020.9 mb
Air temperature 18.3 ° C
Visibility: greater than 5.4 NM
Dewpoint 12.4 ° C
Water temperature 19.0 ° C

Date/timePositionNaut miles runAvg speedWind from/ knotsBaromVisibWave heightAir tempDewpointWater temp
2015-Jul-30 21:00S 33°06' E 027°54'16711.1 260 / 391020.9 5.4 5.018.312.419.0
2015-Jul-30 06:00S 31°12' E 030°18'59 9.9 240 / 131013.8 5.4 1.519.515.618.4
2015-Jul-30 00:04S 30°24' E 030°56'510.4
2015-Jul-29 23:33S 30°19' E 030°60'1010.2
2015-Jul-29 22:33S 30°10' E 031°06'1010.4
2015-Jul-29 21:33S 30°01' E 031°10'1010.3
2015-Jul-29 20:33S 29°50' E 031°11'3 3.4
2015-Jul-29 19:33S 29°47' E 031°11'0 0.1
2015-Jul-29 18:33S 29°47' E 031°11'0 0.1
2015-Jul-29 17:32S 29°47' E 031°11'0 0.0
2015-Jul-29 16:32S 29°47' E 031°11'0 0.0
2015-Jul-29 15:31S 29°47' E 031°11'2 1.9
2015-Jul-29 14:33S 29°49' E 031°10'2 2.5
2015-Jul-29 13:33S 29°50' E 031°08'9 9.0
2015-Jul-29 12:33S 29°44' E 031°15'5 4.5
2015-Jul-29 11:29S 29°47' E 031°11'0 0.0
2015-Jul-29 10:32S 29°47' E 031°11'712.2
2015-Jul-29 10:00S 29°42' E 031°06'713.9 040 / 121011.1 5.4 1.023.514.222.0
2015-Jul-29 09:31S 29°47' E 031°11'0 0.0
2015-Jul-29 08:31S 29°47' E 031°11'0 0.0
2015-Jul-29 07:34S 29°47' E 031°11'0 0.0
2015-Jul-29 06:33S 29°47' E 031°11'0 0.0
2015-Jul-29 05:33S 29°47' E 031°11'0 0.0
2015-Jul-29 04:32S 29°47' E 031°11'0 0.0
2015-Jul-29 03:32S 29°47' E 031°11'0 0.0
2015-Jul-29 02:31S 29°47' E 031°11'0 0.0
2015-Jul-29 01:31S 29°47' E 031°11'0 0.0
2015-Jul-29 00:33S 29°47' E 031°11'0 0.0
2015-Jul-28 23:33S 29°47' E 031°11'0 0.0
2015-Jul-28 22:33S 29°47' E 031°11'711.9
2015-Jul-28 22:00S 29°42' E 031°06'714.4 030 / 121015.0 5.4 1.020.015.819.0
2015-Jul-28 21:32S 29°47' E 031°11'0 0.0
2015-Jul-28 20:32S 29°47' E 031°11'0 0.0
2015-Jul-28 19:31S 29°47' E 031°11'0 0.0
2015-Jul-28 18:31S 29°47' E 031°11'712.6
2015-Jul-28 18:00S 29°42' E 031°06'715.1 030 / 191017.5 5.4 2.020.014.919.0
2015-Jul-28 17:33S 29°47' E 031°11'0 0.0
2015-Jul-28 16:33S 29°47' E 031°11'0 0.0
2015-Jul-28 15:33S 29°47' E 031°11'0 0.0
2015-Jul-28 14:32S 29°47' E 031°11'0 0.0
2015-Jul-28 13:32S 29°47' E 031°11'0 0.0
2015-Jul-28 12:31S 29°47' E 031°11'0 0.0
2015-Jul-28 11:31S 29°47' E 031°11'0 0.0
2015-Jul-28 10:33S 29°47' E 031°11'0 0.0
2015-Jul-28 09:33S 29°47' E 031°11'0 0.0
2015-Jul-28 08:33S 29°47' E 031°11'0 0.0
2015-Jul-28 07:23S 29°47' E 031°11'0 0.0
2015-Jul-28 06:32S 29°47' E 031°11'0 0.0
2015-Jul-28 05:31S 29°47' E 031°11'0 0.0
2015-Jul-28 04:31S 29°47' E 031°11'0 0.0
2015-Jul-28 03:33S 29°47' E 031°11'0 0.0
2015-Jul-28 02:33S 29°47' E 031°11'0 0.2
2015-Jul-28 01:34S 29°47' E 031°11'5 5.1
2015-Jul-28 00:33S 29°45' E 031°16'6 5.7
2015-Jul-27 23:33S 29°41' E 031°21'6 6.2
2015-Jul-27 22:33S 29°38' E 031°27'6 6.2
2015-Jul-27 21:33S 29°35' E 031°33'6 6.0
2015-Jul-27 20:33S 29°32' E 031°39'5 1.8
2015-Jul-27 17:33S 29°29' E 031°44'1 0.9
2015-Jul-27 16:27S 29°29' E 031°46'3 3.5
2015-Jul-27 15:33S 29°27' E 031°48'  
2015-Jul-23 15:26S 28°47' E 032°03'6 0.6
2015-Jul-23 05:17S 28°52' E 032°08'2 1.8
2015-Jul-23 04:25S 28°53' E 032°10'  

Dump ship's entire track history